| time (UTC) | temp F | wind direction | speed MPH | gust MPH | rain 1hr in | rain 24hr in | rain mn in | humidity % | barometer mb |
| 20260906205540 | 70 | 113 | 1.0 | 6.0 | 0.00 | 0.00 | 0.00 | 66 | 1018.7 |
| 20260906204520 | 70 | 0.0 | 3.0 | 0.00 | 0.00 | 0.00 | 64 | 1018.6 | |
| 20260906203520 | 71 | 0.0 | 3.0 | 0.00 | 0.00 | 0.00 | 64 | 1018.6 | |
| 20260906202521 | 71 | 68 | 1.0 | 7.0 | 0.00 | 0.00 | 0.00 | 62 | 1018.5 |
| 20260906201520 | 72 | 248 | 1.0 | 3.0 | 0.00 | 0.00 | 0.00 | 63 | 1018.6 |
| 20260906200521 | 73 | 0.0 | 0.0 | 0.00 | 0.00 | 0.00 | 63 | 1018.7 | |
| 20260906195520 | 73 | 0.0 | 2.0 | 0.00 | 0.00 | 0.00 | 63 | 1018.6 | |
| 20260906194520 | 74 | 293 | 1.0 | 6.0 | 0.00 | 0.00 | 0.00 | 63 | 1018.8 |
| 20260906193520 | 74 | 45 | 2.0 | 10.0 | 0.00 | 0.00 | 0.00 | 61 | 1018.7 |
| 20260906192540 | 74 | 45 | 2.0 | 6.0 | 0.00 | 0.00 | 0.00 | 62 | 1018.7 |
| 20260906191520 | 75 | 90 | 3.0 | 8.0 | 0.00 | 0.00 | 0.00 | 63 | 1018.6 |
| 20260906190520 | 75 | 0.0 | 4.0 | 0.00 | 0.00 | 0.00 | 61 | 1018.6 | |
| 20260906185520 | 75 | 90 | 2.0 | 10.0 | 0.00 | 0.00 | 0.00 | 63 | 1018.6 |
| 20260906184520 | 74 | 68 | 3.0 | 7.0 | 0.00 | 0.00 | 0.00 | 64 | 1018.6 |
| 20260906183540 | 74 | 68 | 1.0 | 4.0 | 0.00 | 0.00 | 0.00 | 64 | 1018.6 |
| 20260906182520 | 74 | 0.0 | 3.0 | 0.00 | 0.00 | 0.00 | 64 | 1018.7 | |
| 20260906181540 | 74 | 90 | 2.0 | 10.0 | 0.00 | 0.00 | 0.00 | 64 | 1018.7 |
| 20260906180600 | 74 | 23 | 2.0 | 10.0 | 0.00 | 0.00 | 0.00 | 65 | 1018.6 |
| 20260906175521 | 74 | 68 | 2.0 | 8.0 | 0.00 | 0.00 | 0.00 | 67 | 1018.7 |
| 20260906174521 | 74 | 180 | 1.0 | 3.0 | 0.00 | 0.00 | 0.00 | 65 | 1018.7 |
| 20260906173520 | 75 | 0.0 | 4.0 | 0.00 | 0.00 | 0.00 | 61 | 1018.8 | |
| 20260906172520 | 75 | 135 | 1.0 | 5.0 | 0.00 | 0.00 | 0.00 | 64 | 1018.8 |
| 20260906171520 | 75 | 0.0 | 2.0 | 0.00 | 0.00 | 0.00 | 65 | 1018.7 | |
| 20260906170520 | 75 | 90 | 2.0 | 8.0 | 0.00 | 0.00 | 0.00 | 61 | 1018.8 |
| 20260906165520 | 75 | 293 | 1.0 | 4.0 | 0.00 | 0.00 | 0.00 | 63 | 1018.7 |
| 20260906164520 | 74 | 68 | 1.0 | 7.0 | 0.00 | 0.00 | 0.00 | 63 | 1018.7 |
| 20260906163540 | 74 | 23 | 2.0 | 9.0 | 0.00 | 0.00 | 0.00 | 66 | 1018.7 |
| 20260906162520 | 74 | 90 | 2.0 | 9.0 | 0.00 | 0.00 | 0.00 | 66 | 1018.7 |
| 20260906161521 | 75 | 113 | 1.0 | 7.0 | 0.00 | 0.00 | 0.00 | 65 | 1018.7 |
| 20260906160521 | 75 | 45 | 1.0 | 4.0 | 0.00 | 0.00 | 0.00 | 66 | 1018.7 |
| 20260906155520 | 75 | 68 | 1.0 | 5.0 | 0.00 | 0.00 | 0.00 | 66 | 1018.7 |
| 20260906154520 | 74 | 90 | 1.0 | 5.0 | 0.00 | 0.00 | 0.00 | 71 | 1018.7 |
| 20260906153540 | 72 | 45 | 3.0 | 10.0 | 0.00 | 0.00 | 0.00 | 72 | 1018.5 |
| 20260906152520 | 71 | 248 | 2.0 | 5.0 | 0.00 | 0.00 | 0.00 | 74 | 1018.3 |
| 20260906151520 | 70 | 68 | 3.0 | 10.0 | 0.00 | 0.00 | 0.00 | 75 | 1018.4 |
| 20260906150520 | 70 | 90 | 1.0 | 7.0 | 0.00 | 0.00 | 0.00 | 79 | 1018.4 |
| 20260906145540 | 69 | 45 | 2.0 | 9.0 | 0.00 | 0.00 | 0.00 | 78 | 1018.4 |
| 20260906144520 | 69 | 23 | 2.0 | 8.0 | 0.00 | 0.00 | 0.00 | 80 | 1018.4 |
| 20260906143520 | 68 | 0.0 | 4.0 | 0.00 | 0.00 | 0.00 | 82 | 1018.4 | |
| 20260906142540 | 68 | 45 | 2.0 | 8.0 | 0.00 | 0.00 | 0.00 | 84 | 1018.5 |
| 20260906141520 | 67 | 68 | 1.0 | 5.0 | 0.00 | 0.00 | 0.00 | 84 | 1018.3 |
| 20260906140541 | 67 | 293 | 1.0 | 6.0 | 0.00 | 0.00 | 0.00 | 85 | 1018.0 |
| 20260906135540 | 66 | 90 | 1.0 | 4.0 | 0.00 | 0.00 | 0.00 | 88 | 1017.8 |
| 20260906134540 | 66 | 135 | 1.0 | 7.0 | 0.00 | 0.00 | 0.00 | 92 | 1017.8 |
| 20260906133520 | 66 | 0.0 | 3.0 | 0.00 | 0.00 | 0.00 | 94 | 1017.9 | |
| 20260906132520 | 65 | 45 | 1.0 | 8.0 | 0.00 | 0.00 | 0.00 | 95 | 1017.9 |
| 20260906131520 | 65 | 23 | 1.0 | 6.0 | 0.00 | 0.00 | 0.00 | 95 | 1017.7 |
| 20260906130520 | 64 | 68 | 2.0 | 9.0 | 0.00 | 0.00 | 0.00 | 96 | 1017.6 |
| 20260906125520 | 64 | 90 | 2.0 | 9.0 | 0.00 | 0.00 | 0.00 | 96 | 1017.7 |
| 20260906124520 | 63 | 45 | 1.0 | 6.0 | 0.00 | 0.00 | 0.00 | 96 | 1017.6 |
| 20260906123520 | 61 | 0.0 | 0.0 | 0.00 | 0.00 | 0.00 | 95 | 1017.4 | |
| 20260906122520 | 61 | 0.0 | 0.0 | 0.00 | 0.00 | 0.00 | 94 | 1017.4 | |
| 20260906121520 | 60 | 0.0 | 0.0 | 0.00 | 0.00 | 0.00 | 94 | 1017.4 | |
| 20260906120520 | 60 | 0.0 | 0.0 | 0.00 | 0.00 | 0.00 | 94 | 1017.4 | |
| 20260906115520 | 60 | 0.0 | 0.0 | 0.00 | 0.00 | 0.00 | 93 | 1017.1 | |
| 20260906114520 | 60 | 0.0 | 0.0 | 0.00 | 0.00 | 0.00 | 93 | 1016.9 | |
| 20260906113520 | 60 | 0.0 | 0.0 | 0.00 | 0.00 | 0.00 | 93 | 1016.9 | |
| 20260906112520 | 60 | 0.0 | 0.0 | 0.00 | 0.00 | 0.00 | 93 | 1016.9 | |
| 20260906111520 | 60 | 0.0 | 0.0 | 0.00 | 0.00 | 0.00 | 92 | 1016.7 | |
| 20260906110520 | 60 | 0.0 | 0.0 | 0.00 | 0.00 | 0.00 | 92 | 1016.6 | |
| 20260906105520 | 60 | 0.0 | 0.0 | 0.00 | 0.00 | 0.00 | 92 | 1016.5 | |
| 20260906104540 | 60 | 0.0 | 0.0 | 0.00 | 0.00 | 0.00 | 92 | 1016.5 | |
| 20260906103520 | 60 | 0.0 | 0.0 | 0.00 | 0.00 | 0.00 | 92 | 1016.4 | |
| 20260906102540 | 60 | 0.0 | 0.0 | 0.00 | 0.00 | 0.00 | 92 | 1016.2 | |
| 20260906101520 | 60 | 0.0 | 0.0 | 0.00 | 0.00 | 0.00 | 91 | 1016.1 | |
| 20260906100520 | 61 | 0.0 | 0.0 | 0.00 | 0.00 | 0.00 | 91 | 1016.1 | |
| 20260906095520 | 61 | 0.0 | 0.0 | 0.00 | 0.00 | 0.00 | 91 | 1015.9 | |
| 20260906094520 | 61 | 0.0 | 0.0 | 0.00 | 0.00 | 0.00 | 92 | 1015.8 | |
| 20260906093520 | 61 | 0.0 | 0.0 | 0.00 | 0.00 | 0.00 | 92 | 1015.8 | |
| 20260906092520 | 61 | 0.0 | 0.0 | 0.00 | 0.00 | 0.00 | 91 | 1015.7 | |
| 20260906091520 | 62 | 0.0 | 0.0 | 0.00 | 0.00 | 0.00 | 92 | 1015.6 | |
| 20260906090520 | 62 | 0.0 | 0.0 | 0.00 | 0.00 | 0.00 | 91 | 1015.5 | |
| 20260906085520 | 62 | 0.0 | 0.0 | 0.00 | 0.00 | 0.00 | 91 | 1015.3 | |
| 20260906084520 | 62 | 0.0 | 0.0 | 0.00 | 0.00 | 0.00 | 91 | 1015.1 | |
| 20260906083540 | 62 | 0.0 | 0.0 | 0.00 | 0.00 | 0.00 | 91 | 1015.0 | |
| 20260906082520 | 62 | 0.0 | 0.0 | 0.00 | 0.00 | 0.00 | 91 | 1015.0 | |
| 20260906081520 | 62 | 0.0 | 0.0 | 0.00 | 0.00 | 0.00 | 91 | 1015.1 | |
| 20260906080520 | 62 | 0.0 | 0.0 | 0.00 | 0.00 | 0.00 | 91 | 1015.0 | |
| 20260906075520 | 63 | 0.0 | 0.0 | 0.00 | 0.00 | 0.00 | 91 | 1015.0 | |
| 20260906074520 | 63 | 0.0 | 0.0 | 0.00 | 0.00 | 0.00 | 91 | 1014.9 | |
| 20260906073520 | 63 | 0.0 | 0.0 | 0.00 | 0.00 | 0.00 | 91 | 1014.8 | |
| 20260906072540 | 63 | 0.0 | 0.0 | 0.00 | 0.00 | 0.00 | 91 | 1014.9 | |
| 20260906071520 | 63 | 0.0 | 0.0 | 0.00 | 0.00 | 0.00 | 91 | 1014.9 | |
| 20260906070520 | 63 | 0.0 | 0.0 | 0.00 | 0.00 | 0.00 | 91 | 1014.9 | |
| 20260906065520 | 63 | 0.0 | 0.0 | 0.00 | 0.00 | 0.00 | 91 | 1014.9 | |
| 20260906064553 | 63 | 0.0 | 0.0 | 0.00 | 0.00 | 0.00 | 91 | 1014.9 | |
| 20260906063520 | 63 | 0.0 | 0.0 | 0.00 | 0.00 | 0.00 | 91 | 1015.0 | |
| 20260906062520 | 63 | 0.0 | 0.0 | 0.00 | 0.00 | 0.00 | 90 | 1014.9 | |
| 20260906061520 | 63 | 0.0 | 0.0 | 0.00 | 0.00 | 0.00 | 90 | 1014.9 | |
| 20260906060520 | 63 | 0.0 | 0.0 | 0.00 | 0.00 | 0.00 | 90 | 1015.0 | |
| 20260906055520 | 63 | 0.0 | 0.0 | 0.00 | 0.00 | 0.00 | 90 | 1015.0 | |
| 20260906054520 | 63 | 0.0 | 0.0 | 0.00 | 0.00 | 0.00 | 90 | 1015.0 | |
| 20260906053520 | 63 | 0.0 | 0.0 | 0.00 | 0.00 | 0.00 | 89 | 1014.9 | |
| 20260906052520 | 63 | 0.0 | 0.0 | 0.00 | 0.00 | 0.00 | 89 | 1015.0 | |
| 20260906051520 | 63 | 0.0 | 0.0 | 0.00 | 0.00 | 0.00 | 89 | 1014.9 | |
| 20260906050520 | 63 | 0.0 | 0.0 | 0.00 | 0.00 | 0.00 | 89 | 1015.1 | |
| 20260906045520 | 63 | 0.0 | 0.0 | 0.00 | 0.00 | 0.00 | 89 | 1014.9 | |
| 20260906044520 | 63 | 0.0 | 0.0 | 0.00 | 0.00 | 0.00 | 89 | 1014.8 | |
| 20260906043520 | 63 | 0.0 | 0.0 | 0.00 | 0.00 | 0.00 | 87 | 1014.7 | |
| 20260906042520 | 64 | 0.0 | 0.0 | 0.00 | 0.00 | 0.00 | 87 | 1014.7 | |
| 20260906041520 | 64 | 0.0 | 0.0 | 0.00 | 0.00 | 0.00 | 87 | 1014.8 | |
| 20260906040520 | 64 | 0.0 | 0.0 | 0.00 | 0.00 | 0.00 | 87 | 1014.7 | |
| 20260906035519 | 64 | 0.0 | 0.0 | 0.00 | 0.00 | 0.00 | 88 | 1014.7 | |
| 20260906034541 | 64 | 0.0 | 0.0 | 0.00 | 0.00 | 0.00 | 86 | 1014.6 | |
| 20260906033519 | 65 | 0.0 | 0.0 | 0.00 | 0.00 | 0.00 | 86 | 1014.5 | |
| 20260906032519 | 65 | 0.0 | 0.0 | 0.00 | 0.00 | 0.00 | 85 | 1014.5 | |
| 20260906031521 | 65 | 0.0 | 0.0 | 0.00 | 0.00 | 0.00 | 85 | 1014.5 | |
| 20260906030521 | 65 | 0.0 | 0.0 | 0.00 | 0.00 | 0.00 | 84 | 1014.4 | |
| 20260906025541 | 65 | 0.0 | 0.0 | 0.00 | 0.00 | 0.00 | 84 | 1014.4 | |
| 20260906024521 | 65 | 0.0 | 0.0 | 0.00 | 0.00 | 0.00 | 84 | 1014.4 | |
| 20260906023521 | 66 | 0.0 | 0.0 | 0.00 | 0.00 | 0.00 | 84 | 1014.3 | |
| 20260906022539 | 66 | 0.0 | 0.0 | 0.00 | 0.00 | 0.00 | 84 | 1014.3 | |
| 20260906021520 | 66 | 0.0 | 0.0 | 0.00 | 0.00 | 0.00 | 83 | 1014.2 | |
| 20260906020521 | 66 | 0.0 | 0.0 | 0.00 | 0.00 | 0.00 | 82 | 1014.2 | |
| 20260906015521 | 67 | 0.0 | 0.0 | 0.00 | 0.00 | 0.00 | 82 | 1014.3 | |
| 20260906014521 | 67 | 0.0 | 0.0 | 0.00 | 0.00 | 0.00 | 83 | 1014.2 | |
| 20260906013520 | 67 | 0.0 | 0.0 | 0.00 | 0.00 | 0.00 | 82 | 1014.0 | |
| 20260906012521 | 68 | 0.0 | 0.0 | 0.00 | 0.00 | 0.00 | 82 | 1014.0 | |
| 20260906011521 | 68 | 0.0 | 0.0 | 0.00 | 0.00 | 0.00 | 81 | 1014.0 | |
| 20260906010521 | 68 | 0.0 | 0.0 | 0.00 | 0.00 | 0.00 | 81 | 1014.0 | |
| 20260906005521 | 68 | 0.0 | 0.0 | 0.00 | 0.00 | 0.00 | 80 | 1014.0 | |
| 20260906004521 | 69 | 0.0 | 0.0 | 0.00 | 0.00 | 0.00 | 80 | 1013.8 | |
| 20260906003541 | 69 | 0.0 | 0.0 | 0.00 | 0.00 | 0.00 | 79 | 1013.8 | |
| 20260906002559 | 69 | 0.0 | 0.0 | 0.00 | 0.00 | 0.00 | 79 | 1013.8 | |
| 20260906001521 | 70 | 0.0 | 0.0 | 0.00 | 0.00 | 0.00 | 79 | 1013.8 | |
| 20260906000521 | 70 | 0.0 | 0.0 | 0.00 | 0.00 | 0.00 | 78 | 1013.8 | |
| 20260905235541 | 70 | 0.0 | 0.0 | 0.00 | 0.00 | 0.00 | 78 | 1013.8 | |
| 20260905234521 | 70 | 0.0 | 0.0 | 0.00 | 0.00 | 0.00 | 78 | 1013.8 | |
| 20260905233521 | 71 | 0.0 | 0.0 | 0.00 | 0.00 | 0.00 | 78 | 1013.8 | |
| 20260905232521 | 71 | 0.0 | 0.0 | 0.00 | 0.00 | 0.00 | 77 | 1013.9 | |
| 20260905231521 | 71 | 0.0 | 0.0 | 0.00 | 0.00 | 0.00 | 78 | 1014.0 | |
| 20260905230601 | 71 | 0.0 | 1.0 | 0.00 | 0.00 | 0.00 | 77 | 1013.9 | |
| 20260905225521 | 71 | 0.0 | 0.0 | 0.00 | 0.00 | 0.00 | 77 | 1013.9 | |
| 20260905224521 | 72 | 0.0 | 0.0 | 0.00 | 0.00 | 0.00 | 77 | 1014.1 | |
| 20260905223521 | 72 | 0.0 | 1.0 | 0.00 | 0.00 | 0.00 | 76 | 1014.0 | |
| 20260905222520 | 72 | 0.0 | 1.0 | 0.00 | 0.00 | 0.00 | 76 | 1013.7 | |
| 20260905221520 | 73 | 0.0 | 2.0 | 0.00 | 0.00 | 0.00 | 75 | 1013.7 | |
| 20260905220521 | 73 | 0.0 | 3.0 | 0.00 | 0.00 | 0.00 | 75 | 1013.6 | |
| 20260905215521 | 73 | 0.0 | 3.0 | 0.00 | 0.00 | 0.00 | 74 | 1013.6 | |
| 20260905214520 | 73 | 0.0 | 1.0 | 0.00 | 0.00 | 0.00 | 73 | 1013.5 | |
| 20260905213521 | 73 | 0.0 | 4.0 | 0.00 | 0.00 | 0.00 | 73 | 1013.4 | |
| 20260905212520 | 74 | 0.0 | 2.0 | 0.00 | 0.00 | 0.00 | 72 | 1013.5 | |
| 20260905211521 | 74 | 0.0 | 4.0 | 0.00 | 0.00 | 0.00 | 73 | 1013.3 | |
| 20260905210522 | 74 | 225 | 1.0 | 4.0 | 0.00 | 0.00 | 0.00 | 71 | 1013.3 |